sensor_id;sensor_type;location;lat;lon;timestamp;P1;durP1;ratioP1;P2;durP2;ratioP2
81807;SDS011;71241;13.676;100.700;2024-02-26T00:02:16;17.15;;;12.25;;
81807;SDS011;71241;13.676;100.700;2024-02-26T00:04:46;20.92;;;13.32;;
81807;SDS011;71241;13.676;100.700;2024-02-26T00:07:17;24.65;;;13.30;;
81807;SDS011;71241;13.676;100.700;2024-02-26T00:09:47;20.58;;;13.30;;
81807;SDS011;71241;13.676;100.700;2024-02-26T00:12:18;14.93;;;12.90;;
81807;SDS011;71241;13.676;100.700;2024-02-26T00:14:49;18.75;;;12.95;;
81807;SDS011;71241;13.676;100.700;2024-02-26T00:17:21;18.35;;;13.85;;
81807;SDS011;71241;13.676;100.700;2024-02-26T00:19:55;19.15;;;12.75;;
81807;SDS011;71241;13.676;100.700;2024-02-26T00:22:25;16.90;;;12.85;;
81807;SDS011;71241;13.676;100.700;2024-02-26T00:24:56;15.95;;;13.13;;
81807;SDS011;71241;13.676;100.700;2024-02-26T00:27:26;18.75;;;12.20;;
81807;SDS011;71241;13.676;100.700;2024-02-26T00:29:57;19.25;;;12.90;;
81807;SDS011;71241;13.676;100.700;2024-02-26T00:32:31;22.92;;;13.05;;
81807;SDS011;71241;13.676;100.700;2024-02-26T00:35:02;23.67;;;13.50;;
81807;SDS011;71241;13.676;100.700;2024-02-26T00:37:33;15.95;;;11.32;;
81807;SDS011;71241;13.676;100.700;2024-02-26T00:40:04;18.63;;;10.82;;
81807;SDS011;71241;13.676;100.700;2024-02-26T00:42:36;17.75;;;10.73;;
81807;SDS011;71241;13.676;100.700;2024-02-26T00:45:07;17.17;;;10.85;;
81807;SDS011;71241;13.676;100.700;2024-02-26T00:47:39;19.02;;;11.27;;
81807;SDS011;71241;13.676;100.700;2024-02-26T00:50:11;18.42;;;10.38;;
81807;SDS011;71241;13.676;100.700;2024-02-26T00:52:41;15.45;;;12.60;;
81807;SDS011;71241;13.676;100.700;2024-02-26T00:55:12;29.10;;;18.35;;
81807;SDS011;71241;13.676;100.700;2024-02-26T00:57:42;18.55;;;13.63;;
81807;SDS011;71241;13.676;100.700;2024-02-26T01:00:16;17.38;;;11.15;;
81807;SDS011;71241;13.676;100.700;2024-02-26T01:02:49;17.08;;;11.60;;
81807;SDS011;71241;13.676;100.700;2024-02-26T01:05:20;16.23;;;10.95;;
81807;SDS011;71241;13.676;100.700;2024-02-26T01:07:50;16.25;;;11.30;;
81807;SDS011;71241;13.676;100.700;2024-02-26T01:10:21;17.33;;;11.50;;
81807;SDS011;71241;13.676;100.700;2024-02-26T01:12:52;13.25;;;11.02;;
81807;SDS011;71241;13.676;100.700;2024-02-26T01:15:22;16.90;;;11.55;;
81807;SDS011;71241;13.676;100.700;2024-02-26T01:17:56;20.50;;;11.43;;
81807;SDS011;71241;13.676;100.700;2024-02-26T01:20:27;19.30;;;12.07;;
81807;SDS011;71241;13.676;100.700;2024-02-26T01:22:58;16.58;;;12.05;;
81807;SDS011;71241;13.676;100.700;2024-02-26T01:25:28;19.77;;;12.40;;
81807;SDS011;71241;13.676;100.700;2024-02-26T01:27:59;17.85;;;12.25;;
81807;SDS011;71241;13.676;100.700;2024-02-26T01:30:29;24.80;;;19.77;;
81807;SDS011;71241;13.676;100.700;2024-02-26T01:33:02;18.95;;;12.23;;
81807;SDS011;71241;13.676;100.700;2024-02-26T01:35:32;14.80;;;10.95;;
81807;SDS011;71241;13.676;100.700;2024-02-26T01:38:03;15.63;;;11.55;;
81807;SDS011;71241;13.676;100.700;2024-02-26T01:40:34;15.77;;;10.45;;
81807;SDS011;71241;13.676;100.700;2024-02-26T01:43:05;13.63;;;10.43;;
81807;SDS011;71241;13.676;100.700;2024-02-26T01:45:38;14.98;;;13.48;;
81807;SDS011;71241;13.676;100.700;2024-02-26T01:48:10;15.43;;;13.32;;
81807;SDS011;71241;13.676;100.700;2024-02-26T01:50:41;13.88;;;12.40;;
81807;SDS011;71241;13.676;100.700;2024-02-26T01:53:11;20.00;;;15.20;;
81807;SDS011;71241;13.676;100.700;2024-02-26T01:55:42;15.15;;;12.10;;
81807;SDS011;71241;13.676;100.700;2024-02-26T01:58:13;14.10;;;10.45;;
81807;SDS011;71241;13.676;100.700;2024-02-26T02:00:44;16.45;;;12.40;;
81807;SDS011;71241;13.676;100.700;2024-02-26T02:03:17;19.38;;;12.57;;
81807;SDS011;71241;13.676;100.700;2024-02-26T02:08:17;18.95;;;11.98;;
81807;SDS011;71241;13.676;100.700;2024-02-26T02:10:49;18.25;;;12.60;;
81807;SDS011;71241;13.676;100.700;2024-02-26T02:13:19;16.70;;;13.32;;
81807;SDS011;71241;13.676;100.700;2024-02-26T02:15:50;14.13;;;12.63;;
81807;SDS011;71241;13.676;100.700;2024-02-26T02:18:22;18.27;;;11.38;;
81807;SDS011;71241;13.676;100.700;2024-02-26T02:20:55;14.85;;;11.45;;
81807;SDS011;71241;13.676;100.700;2024-02-26T02:23:28;15.65;;;11.57;;
81807;SDS011;71241;13.676;100.700;2024-02-26T02:25:59;15.38;;;11.18;;
81807;SDS011;71241;13.676;100.700;2024-02-26T02:28:29;19.08;;;14.77;;
81807;SDS011;71241;13.676;100.700;2024-02-26T02:31:01;14.85;;;11.25;;
81807;SDS011;71241;13.676;100.700;2024-02-26T02:33:32;15.93;;;11.80;;
81807;SDS011;71241;13.676;100.700;2024-02-26T02:36:06;18.38;;;12.85;;
81807;SDS011;71241;13.676;100.700;2024-02-26T02:38:41;19.13;;;13.32;;
81807;SDS011;71241;13.676;100.700;2024-02-26T02:41:19;13.60;;;12.10;;
81807;SDS011;71241;13.676;100.700;2024-02-26T02:43:50;18.63;;;12.30;;
81807;SDS011;71241;13.676;100.700;2024-02-26T02:48:52;15.38;;;11.57;;
81807;SDS011;71241;13.676;100.700;2024-02-26T02:51:25;18.05;;;12.55;;
81807;SDS011;71241;13.676;100.700;2024-02-26T02:53:56;16.65;;;12.55;;
81807;SDS011;71241;13.676;100.700;2024-02-26T02:56:27;18.00;;;11.88;;
81807;SDS011;71241;13.676;100.700;2024-02-26T02:58:57;17.58;;;12.77;;
81807;SDS011;71241;13.676;100.700;2024-02-26T03:01:30;17.67;;;13.57;;
81807;SDS011;71241;13.676;100.700;2024-02-26T03:04:03;18.83;;;12.43;;
81807;SDS011;71241;13.676;100.700;2024-02-26T03:06:36;17.73;;;12.82;;
81807;SDS011;71241;13.676;100.700;2024-02-26T03:09:07;18.48;;;15.63;;
81807;SDS011;71241;13.676;100.700;2024-02-26T03:11:38;17.00;;;12.95;;
81807;SDS011;71241;13.676;100.700;2024-02-26T03:14:11;16.38;;;12.82;;
81807;SDS011;71241;13.676;100.700;2024-02-26T03:16:41;17.67;;;13.95;;
81807;SDS011;71241;13.676;100.700;2024-02-26T03:19:14;15.05;;;13.50;;
81807;SDS011;71241;13.676;100.700;2024-02-26T03:21:50;17.98;;;15.25;;
81807;SDS011;71241;13.676;100.700;2024-02-26T03:24:20;17.95;;;14.30;;
81807;SDS011;71241;13.676;100.700;2024-02-26T03:26:51;15.57;;;13.55;;
81807;SDS011;71241;13.676;100.700;2024-02-26T03:29:21;17.60;;;14.20;;
81807;SDS011;71241;13.676;100.700;2024-02-26T03:31:52;16.30;;;13.18;;
81807;SDS011;71241;13.676;100.700;2024-02-26T03:34:22;15.85;;;13.23;;
81807;SDS011;71241;13.676;100.700;2024-02-26T03:36:56;18.40;;;14.93;;
81807;SDS011;71241;13.676;100.700;2024-02-26T03:39:29;22.10;;;15.40;;
81807;SDS011;71241;13.676;100.700;2024-02-26T03:41:59;18.58;;;13.80;;
81807;SDS011;71241;13.676;100.700;2024-02-26T03:44:31;17.85;;;13.43;;
81807;SDS011;71241;13.676;100.700;2024-02-26T03:47:01;19.95;;;15.25;;
81807;SDS011;71241;13.676;100.700;2024-02-26T03:49:32;14.60;;;13.02;;
81807;SDS011;71241;13.676;100.700;2024-02-26T03:52:05;19.02;;;14.90;;
81807;SDS011;71241;13.676;100.700;2024-02-26T03:54:35;17.30;;;14.25;;
81807;SDS011;71241;13.676;100.700;2024-02-26T03:57:06;18.10;;;14.93;;
81807;SDS011;71241;13.676;100.700;2024-02-26T03:59:37;19.95;;;15.23;;
81807;SDS011;71241;13.676;100.700;2024-02-26T04:02:08;17.73;;;15.80;;
81807;SDS011;71241;13.676;100.700;2024-02-26T04:04:39;19.85;;;16.48;;
81807;SDS011;71241;13.676;100.700;2024-02-26T04:07:11;22.83;;;18.90;;
81807;SDS011;71241;13.676;100.700;2024-02-26T04:09:42;16.35;;;14.68;;
81807;SDS011;71241;13.676;100.700;2024-02-26T04:12:14;17.27;;;15.07;;
81807;SDS011;71241;13.676;100.700;2024-02-26T04:14:45;20.35;;;16.90;;
81807;SDS011;71241;13.676;100.700;2024-02-26T04:17:15;16.67;;;14.57;;
81807;SDS011;71241;13.676;100.700;2024-02-26T04:19:46;19.55;;;17.42;;
81807;SDS011;71241;13.676;100.700;2024-02-26T04:22:18;19.00;;;16.55;;
81807;SDS011;71241;13.676;100.700;2024-02-26T04:24:49;22.25;;;19.13;;
81807;SDS011;71241;13.676;100.700;2024-02-26T04:27:19;25.13;;;16.70;;
81807;SDS011;71241;13.676;100.700;2024-02-26T04:29:50;18.40;;;15.40;;
81807;SDS011;71241;13.676;100.700;2024-02-26T04:32:20;17.90;;;16.00;;
81807;SDS011;71241;13.676;100.700;2024-02-26T04:34:51;22.45;;;20.13;;
81807;SDS011;71241;13.676;100.700;2024-02-26T04:37:24;21.35;;;19.40;;
81807;SDS011;71241;13.676;100.700;2024-02-26T04:40:10;22.05;;;19.80;;
81807;SDS011;71241;13.676;100.700;2024-02-26T04:42:41;22.05;;;19.83;;
81807;SDS011;71241;13.676;100.700;2024-02-26T04:45:11;21.85;;;19.70;;
81807;SDS011;71241;13.676;100.700;2024-02-26T04:47:42;27.30;;;23.38;;
81807;SDS011;71241;13.676;100.700;2024-02-26T04:50:15;28.35;;;25.45;;
81807;SDS011;71241;13.676;100.700;2024-02-26T04:52:47;28.67;;;26.00;;
81807;SDS011;71241;13.676;100.700;2024-02-26T04:57:48;24.85;;;20.40;;
81807;SDS011;71241;13.676;100.700;2024-02-26T05:00:19;23.05;;;20.63;;
81807;SDS011;71241;13.676;100.700;2024-02-26T05:02:51;21.48;;;19.20;;
81807;SDS011;71241;13.676;100.700;2024-02-26T05:05:21;24.77;;;21.63;;
81807;SDS011;71241;13.676;100.700;2024-02-26T05:07:54;24.77;;;21.48;;
81807;SDS011;71241;13.676;100.700;2024-02-26T05:10:24;22.52;;;20.00;;
81807;SDS011;71241;13.676;100.700;2024-02-26T05:12:55;22.52;;;19.42;;
81807;SDS011;71241;13.676;100.700;2024-02-26T05:15:26;21.95;;;19.65;;
81807;SDS011;71241;13.676;100.700;2024-02-26T05:17:57;23.08;;;20.67;;
81807;SDS011;71241;13.676;100.700;2024-02-26T05:20:28;23.48;;;20.05;;
81807;SDS011;71241;13.676;100.700;2024-02-26T05:23:01;23.35;;;19.95;;
81807;SDS011;71241;13.676;100.700;2024-02-26T05:25:32;23.17;;;20.77;;
81807;SDS011;71241;13.676;100.700;2024-02-26T05:28:03;23.15;;;20.52;;
81807;SDS011;71241;13.676;100.700;2024-02-26T05:30:34;23.52;;;19.80;;
81807;SDS011;71241;13.676;100.700;2024-02-26T05:33:05;23.23;;;20.63;;
81807;SDS011;71241;13.676;100.700;2024-02-26T05:35:36;25.83;;;22.55;;
81807;SDS011;71241;13.676;100.700;2024-02-26T05:38:08;25.98;;;23.48;;
81807;SDS011;71241;13.676;100.700;2024-02-26T05:40:39;27.85;;;24.35;;
81807;SDS011;71241;13.676;100.700;2024-02-26T05:43:09;22.45;;;20.02;;
81807;SDS011;71241;13.676;100.700;2024-02-26T05:45:40;23.05;;;20.20;;
81807;SDS011;71241;13.676;100.700;2024-02-26T05:48:11;23.25;;;20.35;;
81807;SDS011;71241;13.676;100.700;2024-02-26T05:50:41;25.77;;;20.60;;
81807;SDS011;71241;13.676;100.700;2024-02-26T05:53:14;26.15;;;23.35;;
81807;SDS011;71241;13.676;100.700;2024-02-26T05:55:45;27.38;;;22.52;;
81807;SDS011;71241;13.676;100.700;2024-02-26T05:58:16;23.10;;;20.80;;
81807;SDS011;71241;13.676;100.700;2024-02-26T06:00:47;26.85;;;23.77;;
81807;SDS011;71241;13.676;100.700;2024-02-26T06:03:18;26.98;;;24.10;;
81807;SDS011;71241;13.676;100.700;2024-02-26T06:05:49;27.42;;;24.52;;
81807;SDS011;71241;13.676;100.700;2024-02-26T06:08:22;25.35;;;22.75;;
81807;SDS011;71241;13.676;100.700;2024-02-26T06:13:22;27.15;;;24.38;;
81807;SDS011;71241;13.676;100.700;2024-02-26T06:15:53;27.30;;;24.23;;
81807;SDS011;71241;13.676;100.700;2024-02-26T06:18:23;27.52;;;24.58;;
81807;SDS011;71241;13.676;100.700;2024-02-26T06:20:54;29.17;;;25.73;;
81807;SDS011;71241;13.676;100.700;2024-02-26T06:23:27;26.38;;;23.67;;
81807;SDS011;71241;13.676;100.700;2024-02-26T06:26:01;27.23;;;23.70;;
81807;SDS011;71241;13.676;100.700;2024-02-26T06:28:33;27.02;;;24.02;;
81807;SDS011;71241;13.676;100.700;2024-02-26T06:31:04;25.27;;;22.60;;
81807;SDS011;71241;13.676;100.700;2024-02-26T06:33:35;27.38;;;24.52;;
81807;SDS011;71241;13.676;100.700;2024-02-26T06:36:07;24.60;;;22.13;;
81807;SDS011;71241;13.676;100.700;2024-02-26T06:38:39;26.20;;;23.33;;
81807;SDS011;71241;13.676;100.700;2024-02-26T06:41:10;28.95;;;24.33;;
81807;SDS011;71241;13.676;100.700;2024-02-26T06:43:41;26.67;;;23.48;;
81807;SDS011;71241;13.676;100.700;2024-02-26T06:46:11;26.90;;;24.20;;
81807;SDS011;71241;13.676;100.700;2024-02-26T06:48:42;27.10;;;24.27;;
81807;SDS011;71241;13.676;100.700;2024-02-26T06:51:13;27.48;;;24.63;;
81807;SDS011;71241;13.676;100.700;2024-02-26T06:53:45;28.20;;;25.10;;
81807;SDS011;71241;13.676;100.700;2024-02-26T06:56:16;26.48;;;23.67;;
81807;SDS011;71241;13.676;100.700;2024-02-26T06:58:47;28.48;;;25.15;;
81807;SDS011;71241;13.676;100.700;2024-02-26T07:01:20;26.15;;;23.55;;
81807;SDS011;71241;13.676;100.700;2024-02-26T07:03:53;26.27;;;23.67;;
81807;SDS011;71241;13.676;100.700;2024-02-26T07:06:24;25.38;;;22.73;;
81807;SDS011;71241;13.676;100.700;2024-02-26T07:08:56;25.38;;;22.80;;
81807;SDS011;71241;13.676;100.700;2024-02-26T07:11:27;28.17;;;25.15;;
81807;SDS011;71241;13.676;100.700;2024-02-26T07:13:58;28.10;;;25.08;;
81807;SDS011;71241;13.676;100.700;2024-02-26T07:16:30;28.40;;;25.52;;
81807;SDS011;71241;13.676;100.700;2024-02-26T07:19:01;29.38;;;26.38;;
81807;SDS011;71241;13.676;100.700;2024-02-26T07:21:31;28.70;;;25.67;;
81807;SDS011;71241;13.676;100.700;2024-02-26T07:24:05;29.17;;;26.30;;
81807;SDS011;71241;13.676;100.700;2024-02-26T07:26:36;28.70;;;25.98;;
81807;SDS011;71241;13.676;100.700;2024-02-26T07:29:06;30.77;;;26.55;;
81807;SDS011;71241;13.676;100.700;2024-02-26T07:31:37;29.65;;;26.65;;
81807;SDS011;71241;13.676;100.700;2024-02-26T07:34:08;28.90;;;26.02;;
81807;SDS011;71241;13.676;100.700;2024-02-26T07:36:39;27.75;;;24.98;;
81807;SDS011;71241;13.676;100.700;2024-02-26T07:39:12;25.63;;;23.13;;
81807;SDS011;71241;13.676;100.700;2024-02-26T07:41:42;27.48;;;24.27;;
81807;SDS011;71241;13.676;100.700;2024-02-26T07:44:15;29.20;;;26.05;;
81807;SDS011;71241;13.676;100.700;2024-02-26T07:46:47;26.02;;;23.38;;
81807;SDS011;71241;13.676;100.700;2024-02-26T07:49:18;30.35;;;27.17;;
81807;SDS011;71241;13.676;100.700;2024-02-26T07:51:49;26.05;;;23.33;;
81807;SDS011;71241;13.676;100.700;2024-02-26T07:54:22;29.60;;;26.42;;
81807;SDS011;71241;13.676;100.700;2024-02-26T07:56:53;25.73;;;23.23;;
81807;SDS011;71241;13.676;100.700;2024-02-26T07:59:24;26.73;;;23.90;;
81807;SDS011;71241;13.676;100.700;2024-02-26T08:01:58;27.85;;;24.85;;
81807;SDS011;71241;13.676;100.700;2024-02-26T08:04:32;28.25;;;25.38;;
81807;SDS011;71241;13.676;100.700;2024-02-26T08:07:03;29.10;;;26.23;;
81807;SDS011;71241;13.676;100.700;2024-02-26T08:09:35;27.83;;;25.17;;
81807;SDS011;71241;13.676;100.700;2024-02-26T08:14:36;28.67;;;25.77;;
81807;SDS011;71241;13.676;100.700;2024-02-26T08:17:06;25.75;;;23.15;;
81807;SDS011;71241;13.676;100.700;2024-02-26T08:19:37;24.80;;;21.48;;
81807;SDS011;71241;13.676;100.700;2024-02-26T08:22:08;23.33;;;20.95;;
81807;SDS011;71241;13.676;100.700;2024-02-26T08:24:46;23.95;;;21.50;;
81807;SDS011;71241;13.676;100.700;2024-02-26T08:29:49;26.33;;;22.40;;
81807;SDS011;71241;13.676;100.700;2024-02-26T08:32:20;24.85;;;22.23;;
81807;SDS011;71241;13.676;100.700;2024-02-26T08:34:51;25.75;;;22.95;;
81807;SDS011;71241;13.676;100.700;2024-02-26T08:37:22;28.17;;;23.40;;
81807;SDS011;71241;13.676;100.700;2024-02-26T08:39:54;28.10;;;23.50;;
81807;SDS011;71241;13.676;100.700;2024-02-26T08:42:29;26.88;;;24.13;;
81807;SDS011;71241;13.676;100.700;2024-02-26T08:45:00;25.20;;;22.70;;
81807;SDS011;71241;13.676;100.700;2024-02-26T08:47:31;24.85;;;22.42;;
81807;SDS011;71241;13.676;100.700;2024-02-26T08:50:02;26.98;;;24.27;;
81807;SDS011;71241;13.676;100.700;2024-02-26T08:52:34;27.08;;;24.17;;
81807;SDS011;71241;13.676;100.700;2024-02-26T08:55:08;26.95;;;24.33;;
81807;SDS011;71241;13.676;100.700;2024-02-26T08:57:39;26.88;;;24.00;;
81807;SDS011;71241;13.676;100.700;2024-02-26T09:00:10;27.27;;;24.10;;
81807;SDS011;71241;13.676;100.700;2024-02-26T09:02:44;26.27;;;23.42;;
81807;SDS011;71241;13.676;100.700;2024-02-26T09:05:17;25.33;;;22.77;;
81807;SDS011;71241;13.676;100.700;2024-02-26T09:07:47;25.75;;;22.98;;
81807;SDS011;71241;13.676;100.700;2024-02-26T09:10:22;27.50;;;24.58;;
81807;SDS011;71241;13.676;100.700;2024-02-26T09:15:24;27.42;;;24.42;;
81807;SDS011;71241;13.676;100.700;2024-02-26T09:17:55;26.83;;;22.77;;
81807;SDS011;71241;13.676;100.700;2024-02-26T09:20:26;26.35;;;20.83;;
81807;SDS011;71241;13.676;100.700;2024-02-26T09:22:56;23.42;;;20.88;;
81807;SDS011;71241;13.676;100.700;2024-02-26T09:25:29;23.52;;;20.85;;
81807;SDS011;71241;13.676;100.700;2024-02-26T09:28:00;24.27;;;19.35;;
81807;SDS011;71241;13.676;100.700;2024-02-26T09:30:31;22.30;;;19.92;;
81807;SDS011;71241;13.676;100.700;2024-02-26T09:33:02;24.40;;;21.35;;
81807;SDS011;71241;13.676;100.700;2024-02-26T09:35:33;26.70;;;22.67;;
81807;SDS011;71241;13.676;100.700;2024-02-26T09:38:04;25.17;;;21.33;;
81807;SDS011;71241;13.676;100.700;2024-02-26T09:40:38;23.77;;;19.40;;
81807;SDS011;71241;13.676;100.700;2024-02-26T09:43:10;24.42;;;18.70;;
81807;SDS011;71241;13.676;100.700;2024-02-26T09:45:44;20.55;;;18.27;;
81807;SDS011;71241;13.676;100.700;2024-02-26T09:48:15;20.23;;;18.02;;
81807;SDS011;71241;13.676;100.700;2024-02-26T09:50:48;22.23;;;17.30;;
81807;SDS011;71241;13.676;100.700;2024-02-26T09:53:19;20.13;;;17.42;;
81807;SDS011;71241;13.676;100.700;2024-02-26T09:55:53;23.55;;;17.77;;
81807;SDS011;71241;13.676;100.700;2024-02-26T09:58:24;19.33;;;16.38;;
81807;SDS011;71241;13.676;100.700;2024-02-26T10:00:56;19.63;;;15.90;;
81807;SDS011;71241;13.676;100.700;2024-02-26T10:03:33;16.60;;;14.82;;
81807;SDS011;71241;13.676;100.700;2024-02-26T10:06:07;21.58;;;16.13;;
81807;SDS011;71241;13.676;100.700;2024-02-26T10:08:38;20.65;;;16.85;;
81807;SDS011;71241;13.676;100.700;2024-02-26T10:11:10;21.35;;;17.08;;
81807;SDS011;71241;13.676;100.700;2024-02-26T10:13:41;19.08;;;15.80;;
81807;SDS011;71241;13.676;100.700;2024-02-26T10:16:12;22.85;;;16.98;;
81807;SDS011;71241;13.676;100.700;2024-02-26T10:18:46;20.48;;;14.75;;
81807;SDS011;71241;13.676;100.700;2024-02-26T10:21:20;19.35;;;15.70;;
81807;SDS011;71241;13.676;100.700;2024-02-26T10:23:51;19.58;;;15.32;;
81807;SDS011;71241;13.676;100.700;2024-02-26T10:26:24;18.50;;;15.43;;
81807;SDS011;71241;13.676;100.700;2024-02-26T10:28:59;20.05;;;17.95;;
81807;SDS011;71241;13.676;100.700;2024-02-26T10:31:30;20.00;;;16.98;;
81807;SDS011;71241;13.676;100.700;2024-02-26T10:34:01;20.63;;;18.58;;
81807;SDS011;71241;13.676;100.700;2024-02-26T10:36:33;22.35;;;18.10;;
81807;SDS011;71241;13.676;100.700;2024-02-26T10:39:18;18.17;;;16.42;;
81807;SDS011;71241;13.676;100.700;2024-02-26T10:41:51;17.35;;;15.70;;
81807;SDS011;71241;13.676;100.700;2024-02-26T10:46:52;19.20;;;17.13;;
81807;SDS011;71241;13.676;100.700;2024-02-26T10:49:23;19.55;;;18.00;;
81807;SDS011;71241;13.676;100.700;2024-02-26T10:51:55;20.73;;;18.75;;
81807;SDS011;71241;13.676;100.700;2024-02-26T10:54:26;19.08;;;16.80;;
81807;SDS011;71241;13.676;100.700;2024-02-26T10:56:59;21.80;;;19.85;;
81807;SDS011;71241;13.676;100.700;2024-02-26T10:59:31;22.52;;;20.52;;
81807;SDS011;71241;13.676;100.700;2024-02-26T11:04:37;21.05;;;19.23;;
81807;SDS011;71241;13.676;100.700;2024-02-26T11:07:08;22.02;;;19.98;;
81807;SDS011;71241;13.676;100.700;2024-02-26T11:09:40;22.85;;;20.30;;
81807;SDS011;71241;13.676;100.700;2024-02-26T11:12:15;22.48;;;20.60;;
81807;SDS011;71241;13.676;100.700;2024-02-26T11:14:46;24.15;;;21.65;;
81807;SDS011;71241;13.676;100.700;2024-02-26T11:17:18;25.70;;;23.27;;
81807;SDS011;71241;13.676;100.700;2024-02-26T11:19:49;21.38;;;19.20;;
81807;SDS011;71241;13.676;100.700;2024-02-26T11:22:20;20.33;;;17.75;;
81807;SDS011;71241;13.676;100.700;2024-02-26T11:24:52;22.50;;;20.17;;
81807;SDS011;71241;13.676;100.700;2024-02-26T11:27:26;21.10;;;18.20;;
81807;SDS011;71241;13.676;100.700;2024-02-26T11:29:59;18.98;;;16.90;;
81807;SDS011;71241;13.676;100.700;2024-02-26T11:32:34;20.05;;;17.48;;
81807;SDS011;71241;13.676;100.700;2024-02-26T11:35:05;22.77;;;19.25;;
81807;SDS011;71241;13.676;100.700;2024-02-26T11:37:39;24.15;;;17.58;;
81807;SDS011;71241;13.676;100.700;2024-02-26T11:40:12;21.83;;;17.27;;
81807;SDS011;71241;13.676;100.700;2024-02-26T11:42:45;21.20;;;15.95;;
81807;SDS011;71241;13.676;100.700;2024-02-26T11:48:25;20.45;;;15.43;;
81807;SDS011;71241;13.676;100.700;2024-02-26T11:50:58;25.25;;;17.08;;
81807;SDS011;71241;13.676;100.700;2024-02-26T11:53:30;22.15;;;16.00;;
81807;SDS011;71241;13.676;100.700;2024-02-26T11:59:01;16.90;;;14.50;;
81807;SDS011;71241;13.676;100.700;2024-02-26T12:01:41;19.30;;;16.00;;
81807;SDS011;71241;13.676;100.700;2024-02-26T12:04:16;20.80;;;15.55;;
81807;SDS011;71241;13.676;100.700;2024-02-26T12:06:50;19.83;;;15.10;;
81807;SDS011;71241;13.676;100.700;2024-02-26T12:09:32;18.67;;;13.50;;
81807;SDS011;71241;13.676;100.700;2024-02-26T12:12:03;17.38;;;15.57;;
81807;SDS011;71241;13.676;100.700;2024-02-26T12:14:39;19.85;;;14.73;;
81807;SDS011;71241;13.676;100.700;2024-02-26T12:17:18;20.10;;;15.70;;
81807;SDS011;71241;13.676;100.700;2024-02-26T12:19:49;17.13;;;14.35;;
81807;SDS011;71241;13.676;100.700;2024-02-26T12:22:22;16.15;;;13.98;;
81807;SDS011;71241;13.676;100.700;2024-02-26T12:24:58;16.08;;;14.30;;
81807;SDS011;71241;13.676;100.700;2024-02-26T12:27:30;17.85;;;14.57;;
81807;SDS011;71241;13.676;100.700;2024-02-26T12:30:02;20.40;;;15.57;;
81807;SDS011;71241;13.676;100.700;2024-02-26T12:32:33;20.35;;;14.82;;
81807;SDS011;71241;13.676;100.700;2024-02-26T12:35:05;18.08;;;15.77;;
81807;SDS011;71241;13.676;100.700;2024-02-26T12:37:36;16.98;;;13.77;;
81807;SDS011;71241;13.676;100.700;2024-02-26T12:40:11;16.15;;;14.30;;
81807;SDS011;71241;13.676;100.700;2024-02-26T12:42:42;17.80;;;16.13;;
81807;SDS011;71241;13.676;100.700;2024-02-26T12:45:14;19.05;;;15.35;;
81807;SDS011;71241;13.676;100.700;2024-02-26T12:47:45;18.05;;;13.23;;
81807;SDS011;71241;13.676;100.700;2024-02-26T12:50:18;19.10;;;13.27;;
81807;SDS011;71241;13.676;100.700;2024-02-26T12:52:49;17.10;;;12.80;;
81807;SDS011;71241;13.676;100.700;2024-02-26T12:55:21;19.45;;;15.25;;
81807;SDS011;71241;13.676;100.700;2024-02-26T12:57:52;17.83;;;14.70;;
81807;SDS011;71241;13.676;100.700;2024-02-26T13:00:26;23.45;;;13.65;;
81807;SDS011;71241;13.676;100.700;2024-02-26T13:03:00;19.80;;;13.50;;
81807;SDS011;71241;13.676;100.700;2024-02-26T13:05:31;16.38;;;14.73;;
81807;SDS011;71241;13.676;100.700;2024-02-26T13:08:03;19.17;;;13.15;;
81807;SDS011;71241;13.676;100.700;2024-02-26T13:10:36;16.88;;;14.05;;
81807;SDS011;71241;13.676;100.700;2024-02-26T13:13:07;16.17;;;13.48;;
81807;SDS011;71241;13.676;100.700;2024-02-26T13:15:39;16.52;;;12.65;;
81807;SDS011;71241;13.676;100.700;2024-02-26T13:18:10;16.90;;;15.05;;
81807;SDS011;71241;13.676;100.700;2024-02-26T13:20:42;15.80;;;13.63;;
81807;SDS011;71241;13.676;100.700;2024-02-26T13:23:12;17.38;;;13.13;;
81807;SDS011;71241;13.676;100.700;2024-02-26T13:25:43;17.85;;;13.23;;
81807;SDS011;71241;13.676;100.700;2024-02-26T13:28:14;17.88;;;14.10;;
81807;SDS011;71241;13.676;100.700;2024-02-26T13:30:52;17.25;;;13.00;;
81807;SDS011;71241;13.676;100.700;2024-02-26T13:33:25;17.73;;;14.00;;
81807;SDS011;71241;13.676;100.700;2024-02-26T13:35:57;16.23;;;14.25;;
81807;SDS011;71241;13.676;100.700;2024-02-26T13:38:28;18.52;;;16.58;;
81807;SDS011;71241;13.676;100.700;2024-02-26T13:40:59;21.45;;;14.13;;
81807;SDS011;71241;13.676;100.700;2024-02-26T13:43:30;17.92;;;14.25;;
81807;SDS011;71241;13.676;100.700;2024-02-26T13:46:02;16.35;;;13.90;;
81807;SDS011;71241;13.676;100.700;2024-02-26T13:51:03;18.90;;;14.32;;
81807;SDS011;71241;13.676;100.700;2024-02-26T13:53:34;17.13;;;15.40;;
81807;SDS011;71241;13.676;100.700;2024-02-26T13:56:04;18.10;;;14.98;;
81807;SDS011;71241;13.676;100.700;2024-02-26T13:58:36;17.38;;;15.57;;
81807;SDS011;71241;13.676;100.700;2024-02-26T14:01:09;16.63;;;13.30;;
81807;SDS011;71241;13.676;100.700;2024-02-26T14:03:42;17.20;;;13.23;;
81807;SDS011;71241;13.676;100.700;2024-02-26T14:06:14;17.77;;;14.30;;
81807;SDS011;71241;13.676;100.700;2024-02-26T14:08:45;17.10;;;14.68;;
81807;SDS011;71241;13.676;100.700;2024-02-26T14:11:17;17.60;;;14.90;;
81807;SDS011;71241;13.676;100.700;2024-02-26T14:13:48;16.00;;;14.27;;
81807;SDS011;71241;13.676;100.700;2024-02-26T14:16:23;18.77;;;15.68;;
81807;SDS011;71241;13.676;100.700;2024-02-26T14:18:56;17.95;;;14.13;;
81807;SDS011;71241;13.676;100.700;2024-02-26T14:21:27;18.67;;;15.85;;
81807;SDS011;71241;13.676;100.700;2024-02-26T14:24:01;17.30;;;13.70;;
81807;SDS011;71241;13.676;100.700;2024-02-26T14:26:33;16.20;;;12.95;;
81807;SDS011;71241;13.676;100.700;2024-02-26T14:29:04;15.35;;;13.45;;
81807;SDS011;71241;13.676;100.700;2024-02-26T14:31:37;18.27;;;14.52;;
81807;SDS011;71241;13.676;100.700;2024-02-26T14:34:11;19.02;;;15.52;;
81807;SDS011;71241;13.676;100.700;2024-02-26T14:36:42;18.95;;;13.77;;
81807;SDS011;71241;13.676;100.700;2024-02-26T14:39:13;16.77;;;14.43;;
81807;SDS011;71241;13.676;100.700;2024-02-26T14:41:43;17.48;;;14.40;;
81807;SDS011;71241;13.676;100.700;2024-02-26T14:44:14;20.17;;;15.13;;
81807;SDS011;71241;13.676;100.700;2024-02-26T14:46:49;17.02;;;15.15;;
81807;SDS011;71241;13.676;100.700;2024-02-26T14:49:19;17.25;;;15.20;;
81807;SDS011;71241;13.676;100.700;2024-02-26T14:51:51;17.25;;;14.63;;
81807;SDS011;71241;13.676;100.700;2024-02-26T14:54:27;19.58;;;15.90;;